Time;durP1;ratioP1;P1;durP2;ratioP2;P2;SDS_P1;SDS_P2;PMS_P1;PMS_P2;Temp;Humidity;BMP_temperature;BMP_pressure;BME280_temperature;BME280_humidity;BME280_pressure;Samples;Min_cycle;Max_cycle;Signal;HPM_P1;HPM_P2
2022/02/20 00:00:25;;;;;;;0.30;0.15;;;;;;;20.14;43.62;99474.91;5052672;28;20028;-62
2022/02/20 00:02:50;;;;;;;0.45;0.30;;;;;;;20.12;43.89;99473.44;5052350;28;20029;-62
2022/02/20 00:05:16;;;;;;;0.63;0.30;;;;;;;20.07;43.05;99462.34;5051303;28;20029;-62
2022/02/20 00:07:41;;;;;;;0.32;0.10;;;;;;;20.20;45.77;99458.75;5052285;28;20036;-62
2022/02/20 00:10:07;;;;;;;0.10;0.05;;;;;;;20.49;47.98;99444.56;5052442;28;20024;-61
2022/02/20 00:12:32;;;;;;;0.10;0.00;;;;;;;20.67;50.25;99452.84;5052144;28;20025;-62
2022/02/20 00:14:58;;;;;;;0.10;0.10;;;;;;;20.71;51.47;99448.63;5032414;28;20491;-62
2022/02/20 00:17:23;;;;;;;0.98;0.28;;;;;;;20.77;52.06;99448.78;5032548;28;20040;-62
2022/02/20 00:19:50;;;;;;;0.30;0.10;;;;;;;20.82;53.02;99448.94;5032025;28;20108;-62
2022/02/20 00:22:16;;;;;;;0.10;0.00;;;;;;;20.86;54.37;99442.00;5032578;28;20028;-62
2022/02/20 00:24:41;;;;;;;0.40;0.32;;;;;;;20.92;54.09;99443.84;5032264;28;20116;-62
2022/02/20 00:27:06;;;;;;;0.73;0.20;;;;;;;20.94;55.18;99439.00;5032339;28;20124;-62
2022/02/20 00:29:32;;;;;;;0.90;0.10;;;;;;;20.95;55.07;99432.47;5032316;28;20048;-62
2022/02/20 00:31:57;;;;;;;0.65;0.17;;;;;;;21.00;55.75;99430.75;5032047;28;20030;-62
2022/02/20 00:34:22;;;;;;;0.20;0.17;;;;;;;21.02;55.30;99436.00;5034305;28;20039;-62
2022/02/20 00:36:47;;;;;;;0.10;0.10;;;;;;;21.07;55.92;99435.31;5036129;28;20056;-62
2022/02/20 00:39:13;;;;;;;0.10;0.05;;;;;;;21.11;55.74;99442.00;5036465;28;20028;-62
2022/02/20 00:41:38;;;;;;;0.75;0.20;;;;;;;21.12;55.08;99430.84;5036140;28;20062;-62
2022/02/20 00:44:04;;;;;;;0.43;0.10;;;;;;;21.12;55.03;99428.13;5048156;28;20036;-62
2022/02/20 00:46:29;;;;;;;0.40;0.17;;;;;;;21.18;55.35;99427.25;5056189;28;20036;-62
2022/02/20 00:48:54;;;;;;;0.22;0.10;;;;;;;21.21;53.84;99432.25;5055986;28;20029;-62
2022/02/20 00:51:19;;;;;;;0.10;0.10;;;;;;;21.25;54.15;99428.03;5056109;28;20025;-62
2022/02/20 00:53:45;;;;;;;0.22;0.10;;;;;;;21.26;53.66;99429.72;5061961;23;20511;-62
2022/02/20 00:56:10;;;;;;;0.08;0.00;;;;;;;21.32;55.77;99423.34;5055942;28;20032;-62
2022/02/20 00:58:35;;;;;;;0.20;0.20;;;;;;;21.35;55.20;99433.00;5055931;28;20047;-62
2022/02/20 01:01:00;;;;;;;0.60;0.10;;;;;;;21.39;53.87;99441.59;5055778;28;20071;-62
2022/02/20 01:03:26;;;;;;;0.68;0.08;;;;;;;21.38;53.56;99443.50;5055902;28;20063;-62
2022/02/20 01:05:52;;;;;;;1.10;0.10;;;;;;;21.42;52.67;99438.41;5055093;28;20040;-62
2022/02/20 01:08:17;;;;;;;0.32;0.10;;;;;;;21.43;53.11;99440.06;5056142;28;20427;-62
2022/02/20 01:10:43;;;;;;;0.60;0.10;;;;;;;21.47;53.04;99438.56;5055680;28;20027;-62
2022/02/20 01:13:08;;;;;;;0.10;0.10;;;;;;;21.48;53.34;99437.50;5055509;28;20056;-62
2022/02/20 01:15:34;;;;;;;0.70;0.25;;;;;;;21.46;53.81;99434.16;5055631;28;20124;-61
2022/02/20 01:17:59;;;;;;;0.85;0.20;;;;;;;21.49;52.21;99434.53;5055467;28;20029;-62
2022/02/20 01:20:25;;;;;;;1.10;0.20;;;;;;;21.52;52.36;99427.81;5055643;28;20028;-62
2022/02/20 01:22:50;;;;;;;0.93;0.22;;;;;;;21.52;53.40;99425.06;5055298;28;20453;-62
2022/02/20 01:25:15;;;;;;;0.40;0.08;;;;;;;21.57;52.58;99420.59;5055527;28;20052;-62
2022/02/20 01:27:40;;;;;;;0.28;0.05;;;;;;;21.57;52.19;99425.22;5055228;28;20028;-62
2022/02/20 01:30:06;;;;;;;0.10;0.10;;;;;;;21.57;52.63;99430.69;5055329;28;20035;-62
2022/02/20 01:32:31;;;;;;;0.30;0.00;;;;;;;21.57;52.14;99433.41;5055325;28;20060;-62
2022/02/20 01:34:57;;;;;;;0.35;0.10;;;;;;;21.56;51.96;99434.47;5055071;28;20033;-62
2022/02/20 01:37:22;;;;;;;0.10;0.00;;;;;;;21.59;51.99;99423.09;5055089;28;20025;-62
2022/02/20 01:39:48;;;;;;;0.32;0.10;;;;;;;21.60;51.60;99432.97;5054957;28;20456;-62
2022/02/20 01:42:13;;;;;;;0.00;0.00;;;;;;;21.58;51.45;99422.25;5055016;28;20219;-63
2022/02/20 01:44:38;;;;;;;0.10;0.08;;;;;;;21.61;51.74;99426.44;5055065;28;20063;-62
2022/02/20 01:47:06;;;;;;;1.38;0.20;;;;;;;21.61;51.87;99424.53;5054181;28;20035;-62
2022/02/20 01:49:32;;;;;;;0.55;0.13;;;;;;;21.61;51.83;99407.28;5055275;28;20406;-62
2022/02/20 01:51:57;;;;;;;0.38;0.10;;;;;;;21.61;51.86;99416.31;5054721;28;20085;-62
2022/02/20 01:54:22;;;;;;;0.68;0.20;;;;;;;21.63;52.11;99407.91;5055178;28;20060;-62
2022/02/20 01:56:48;;;;;;;0.10;0.10;;;;;;;21.63;51.77;99402.41;5054724;28;20037;-62
2022/02/20 01:59:13;;;;;;;0.10;0.05;;;;;;;21.63;51.66;99403.25;5054921;28;20428;-62
2022/02/20 02:01:38;;;;;;;0.40;0.10;;;;;;;21.64;51.29;99398.63;5054644;28;20063;-62
2022/02/20 02:04:04;;;;;;;1.20;0.30;;;;;;;21.66;51.85;99398.38;5061258;28;20028;-62
2022/02/20 02:06:31;;;;;;;0.15;0.00;;;;;;;21.63;51.30;99392.31;5070788;28;20068;-62
2022/02/20 02:08:58;;;;;;;0.73;0.20;;;;;;;21.66;51.24;99391.03;5061940;28;20621;-62
2022/02/20 02:11:24;;;;;;;0.03;0.03;;;;;;;21.64;52.06;99387.69;5054687;28;20029;-62
2022/02/20 02:13:50;;;;;;;0.10;0.10;;;;;;;21.67;51.22;99387.25;5054262;28;20447;-62
2022/02/20 02:16:15;;;;;;;0.28;0.10;;;;;;;21.63;51.90;99386.00;5054422;28;20017;-62
2022/02/20 02:18:42;;;;;;;0.20;0.15;;;;;;;21.66;51.09;99390.19;5054393;28;20025;-62
2022/02/20 02:21:07;;;;;;;0.35;0.17;;;;;;;21.68;51.15;99394.41;5054405;28;20029;-62
2022/02/20 02:23:32;;;;;;;0.45;0.10;;;;;;;21.66;51.33;99393.75;5053039;28;20028;-62
2022/02/20 02:25:58;;;;;;;0.20;0.03;;;;;;;21.67;51.70;99395.47;5053969;28;20043;-62
2022/02/20 02:28:23;;;;;;;1.17;0.17;;;;;;;21.66;51.76;99391.03;5054389;28;20060;-62
2022/02/20 02:30:49;;;;;;;0.40;0.17;;;;;;;21.68;50.95;99394.41;5054045;28;20075;-62
2022/02/20 02:33:32;;;;;;;0.30;0.00;;;;;;;21.70;51.77;99391.44;5054234;28;20075;-62
2022/02/20 02:35:58;;;;;;;0.43;0.15;;;;;;;21.67;51.17;99392.72;5056803;28;20041;-62
2022/02/20 02:38:26;;;;;;;0.75;0.30;;;;;;;21.66;51.38;99390.19;5066534;28;20037;-62
2022/02/20 02:41:00;;;;;;;0.55;0.20;;;;;;;21.67;51.47;99380.91;5053910;28;20468;-62
2022/02/20 02:43:26;;;;;;;0.88;0.15;;;;;;;21.68;51.50;99388.94;5055137;28;20020;-62
2022/02/20 02:45:52;;;;;;;1.13;0.30;;;;;;;21.69;50.82;99387.84;5053725;28;20059;-62
2022/02/20 02:48:17;;;;;;;0.22;0.22;;;;;;;21.69;51.17;99387.03;5053933;28;20475;-62
2022/02/20 02:50:43;;;;;;;0.15;0.10;;;;;;;21.67;51.04;99378.19;5053806;28;20025;-62
2022/02/20 02:53:08;;;;;;;0.80;0.10;;;;;;;21.68;51.64;99386.19;5053529;28;20431;-62
2022/02/20 02:55:34;;;;;;;0.43;0.10;;;;;;;21.69;51.70;99373.34;5053627;28;20025;-62
2022/02/20 02:57:59;;;;;;;0.70;0.20;;;;;;;21.70;51.25;99370.38;5053168;28;20447;-62
2022/02/20 03:00:25;;;;;;;0.10;0.10;;;;;;;21.68;51.32;99369.78;5053675;28;20472;-62
2022/02/20 03:02:50;;;;;;;0.03;0.03;;;;;;;21.66;51.33;99373.78;5053493;28;20032;-62
2022/02/20 03:05:15;;;;;;;0.28;0.08;;;;;;;21.68;51.77;99366.22;5053667;28;20067;-62
2022/02/20 03:07:42;;;;;;;0.38;0.10;;;;;;;21.69;51.92;99346.00;5070186;28;20029;-62
2022/02/20 03:10:08;;;;;;;0.40;0.20;;;;;;;21.70;51.06;99347.66;5060677;28;20032;-62
2022/02/20 03:12:33;;;;;;;0.90;0.20;;;;;;;21.70;51.41;99359.44;5053377;28;20021;-62
2022/02/20 03:14:58;;;;;;;0.20;0.10;;;;;;;21.68;51.11;99364.31;5053268;28;20021;-62
2022/02/20 03:17:23;;;;;;;0.10;0.00;;;;;;;21.69;51.26;99368.72;5053441;28;20070;-62
2022/02/20 03:19:49;;;;;;;0.65;0.20;;;;;;;21.69;52.14;99363.25;5053111;28;20083;-62
2022/02/20 03:22:15;;;;;;;0.10;0.10;;;;;;;21.72;52.51;99356.47;5053338;28;20475;-62
2022/02/20 03:24:40;;;;;;;0.20;0.10;;;;;;;21.70;51.15;99353.97;5053181;28;20039;-62
2022/02/20 03:27:06;;;;;;;0.30;0.10;;;;;;;21.67;52.03;99357.16;5053189;28;20021;-62
2022/02/20 03:29:31;;;;;;;0.20;0.08;;;;;;;21.69;52.50;99357.78;5053211;28;20428;-62
2022/02/20 03:31:56;;;;;;;0.25;0.08;;;;;;;21.71;51.43;99352.91;5052780;28;20074;-61
2022/02/20 03:34:22;;;;;;;0.57;0.15;;;;;;;21.69;51.32;99348.72;5053115;28;20021;-62
2022/02/20 03:36:47;;;;;;;0.25;0.10;;;;;;;21.70;51.38;99342.19;5062394;28;20050;-62
2022/02/20 03:39:12;;;;;;;0.85;0.20;;;;;;;21.69;51.57;99341.38;5059182;28;20060;-62
2022/02/20 03:41:37;;;;;;;0.43;0.20;;;;;;;21.70;51.31;99347.66;5053075;28;20094;-62
2022/02/20 03:44:03;;;;;;;0.43;0.10;;;;;;;21.70;51.52;99353.13;5052813;28;20025;-61
2022/02/20 03:46:28;;;;;;;0.10;0.10;;;;;;;21.69;51.07;99351.47;5052972;28;20024;-62
2022/02/20 03:48:53;;;;;;;0.52;0.20;;;;;;;21.68;51.10;99350.63;5052574;28;20069;-62
2022/02/20 03:51:19;;;;;;;0.30;0.10;;;;;;;21.69;51.41;99346.84;5052769;28;20036;-62
2022/02/20 03:53:44;;;;;;;0.57;0.20;;;;;;;21.68;52.03;99356.09;5052291;28;20056;-62
2022/02/20 03:56:09;;;;;;;0.93;0.13;;;;;;;21.70;52.53;99353.97;5052664;28;20513;-62
2022/02/20 03:58:34;;;;;;;0.32;0.10;;;;;;;21.69;52.27;99355.03;5052693;28;20029;-62
2022/02/20 04:01:00;;;;;;;1.35;0.30;;;;;;;21.72;51.51;99356.47;5052767;28;20451;-61
2022/02/20 04:03:25;;;;;;;0.10;0.10;;;;;;;21.68;51.98;99345.16;5052580;28;20099;-62
2022/02/20 04:05:50;;;;;;;0.32;0.32;;;;;;;21.68;51.82;99347.91;5053785;28;20369;-62
2022/02/20 04:08:16;;;;;;;0.30;0.13;;;;;;;21.68;51.42;99342.44;5072136;28;20033;-61
2022/02/20 04:10:41;;;;;;;0.20;0.20;;;;;;;21.68;51.31;99350.63;5072126;28;20020;-62
2022/02/20 04:13:06;;;;;;;1.23;0.28;;;;;;;21.70;50.86;99350.41;5072392;28;20383;-62
2022/02/20 04:15:32;;;;;;;0.43;0.20;;;;;;;21.67;51.23;99359.91;5072484;28;20067;-62
2022/02/20 04:17:57;;;;;;;0.65;0.10;;;;;;;21.66;51.82;99351.91;5072240;28;20036;-62
2022/02/20 04:20:22;;;;;;;0.75;0.10;;;;;;;21.67;51.59;99350.84;5072507;28;20052;-62
2022/02/20 04:22:48;;;;;;;0.75;0.20;;;;;;;21.67;51.31;99354.44;5072229;28;20441;-62
2022/02/20 04:25:15;;;;;;;0.10;0.10;;;;;;;21.69;52.02;99341.38;5072491;28;20036;-62
2022/02/20 04:27:40;;;;;;;1.00;0.22;;;;;;;21.70;52.55;99339.47;5072198;28;20028;-62
2022/02/20 04:30:07;;;;;;;0.80;0.10;;;;;;;21.67;51.04;99348.97;5072574;28;20024;-62
2022/02/20 04:32:33;;;;;;;0.22;0.10;;;;;;;21.67;51.15;99346.22;5072320;28;20130;-61
2022/02/20 04:34:59;;;;;;;0.30;0.10;;;;;;;21.66;51.57;99352.75;5072396;28;20039;-62
2022/02/20 04:37:24;;;;;;;0.20;0.10;;;;;;;21.68;52.45;99356.09;5054952;28;20041;-62
2022/02/20 04:39:49;;;;;;;0.38;0.10;;;;;;;21.68;51.24;99355.28;5051936;28;20033;-62
2022/02/20 04:42:15;;;;;;;0.28;0.00;;;;;;;21.67;51.19;99356.31;5052264;28;20043;-62
2022/02/20 04:44:40;;;;;;;0.13;0.10;;;;;;;21.70;51.53;99364.06;5052044;28;20052;-61
2022/02/20 04:47:05;;;;;;;0.30;0.03;;;;;;;21.69;51.36;99363.25;5052062;28;20031;-62
2022/02/20 04:49:31;;;;;;;0.10;0.10;;;;;;;21.71;51.21;99368.47;5052092;28;20460;-62
2022/02/20 04:51:56;;;;;;;0.10;0.10;;;;;;;21.67;51.37;99368.09;5051814;28;20028;-62
2022/02/20 04:54:21;;;;;;;0.35;0.20;;;;;;;21.68;51.90;99377.16;5050628;28;20049;-62
2022/02/20 04:56:46;;;;;;;0.68;0.20;;;;;;;21.67;51.66;99365.38;5051833;28;20025;-62
2022/02/20 04:59:13;;;;;;;0.10;0.00;;;;;;;21.66;52.07;99369.16;5050836;28;20025;-62
2022/02/20 05:01:40;;;;;;;0.68;0.10;;;;;;;22.42;49.89;99363.13;5051757;28;20036;-62
2022/02/20 05:04:06;;;;;;;1.05;0.20;;;;;;;23.01;47.88;99358.63;5051955;28;20025;-62
2022/02/20 05:06:33;;;;;;;0.47;0.10;;;;;;;23.25;48.73;99353.13;5061658;28;20066;-62
2022/02/20 05:08:58;;;;;;;1.27;0.20;;;;;;;23.38;49.01;99361.13;5071799;28;20513;-62
2022/02/20 05:11:24;;;;;;;0.13;0.10;;;;;;;23.50;48.06;99364.66;5072002;28;20132;-62
2022/02/20 05:13:58;;;;;;;0.52;0.15;;;;;;;23.59;48.16;99367.94;5071587;28;20052;-62
2022/02/20 05:16:25;;;;;;;0.43;0.10;;;;;;;23.68;48.27;99371.94;5070713;28;20032;-62
2022/02/20 05:18:51;;;;;;;0.45;0.30;;;;;;;23.74;48.40;99356.44;5071660;28;20029;-62
2022/02/20 05:21:17;;;;;;;0.70;0.15;;;;;;;23.83;48.85;99352.22;5074531;28;20028;-62
2022/02/20 05:23:42;;;;;;;1.20;0.10;;;;;;;23.86;48.13;99351.78;5075239;28;20042;-62
2022/02/20 05:26:07;;;;;;;1.30;0.30;;;;;;;23.94;48.88;99365.09;5075468;28;20037;-62
2022/02/20 05:28:33;;;;;;;0.50;0.00;;;;;;;23.97;48.74;99372.84;5075481;28;20628;-62
2022/02/20 05:30:58;;;;;;;1.10;0.20;;;;;;;24.02;48.37;99378.44;5075290;28;20038;-62
2022/02/20 05:33:23;;;;;;;0.20;0.20;;;;;;;24.03;48.07;99377.38;5075323;28;20524;-62
2022/02/20 05:35:49;;;;;;;0.43;0.20;;;;;;;24.07;49.33;99367.56;5068726;28;20060;-62
2022/02/20 05:38:16;;;;;;;0.38;0.08;;;;;;;24.11;48.66;99376.97;5055329;28;20043;-61
2022/02/20 05:40:41;;;;;;;0.80;0.20;;;;;;;24.17;49.04;99370.50;5055169;28;20096;-62
2022/02/20 05:43:06;;;;;;;0.60;0.20;;;;;;;24.18;48.76;99372.16;5053793;28;20151;-62
2022/02/20 05:45:32;;;;;;;0.50;0.15;;;;;;;24.19;49.60;99373.84;5055084;28;20460;-62
2022/02/20 05:47:57;;;;;;;1.02;0.30;;;;;;;24.25;49.52;99361.03;5054986;28;20028;-62
2022/02/20 05:50:23;;;;;;;0.40;0.30;;;;;;;24.26;48.91;99362.72;5055098;28;20028;-62
2022/02/20 05:52:48;;;;;;;0.73;0.10;;;;;;;24.28;48.67;99361.38;5054572;28;20032;-62
2022/02/20 05:55:13;;;;;;;0.55;0.20;;;;;;;24.30;48.71;99362.00;5054992;28;20113;-62
2022/02/20 05:57:46;;;;;;;0.55;0.22;;;;;;;24.32;49.67;99355.41;5054789;28;20025;-62
2022/02/20 06:00:13;;;;;;;1.15;0.20;;;;;;;24.34;49.00;99353.25;5054851;28;20025;-62
2022/02/20 06:02:39;;;;;;;0.88;0.20;;;;;;;24.35;49.18;99357.66;5054972;28;20419;-62
2022/02/20 06:05:05;;;;;;;1.40;0.10;;;;;;;24.37;49.90;99352.78;5054896;28;20033;-62
2022/02/20 06:07:30;;;;;;;1.58;0.20;;;;;;;24.40;49.22;99363.28;5073856;28;20059;-62
2022/02/20 06:09:56;;;;;;;1.00;0.10;;;;;;;24.42;48.54;99369.34;5074464;28;20025;-62
2022/02/20 06:12:21;;;;;;;0.95;0.20;;;;;;;24.41;49.57;99348.47;5074555;28;20029;-62
2022/02/20 06:14:46;;;;;;;0.30;0.03;;;;;;;24.45;49.44;99360.63;5074461;28;20028;-62
2022/02/20 06:17:11;;;;;;;1.70;0.30;;;;;;;24.47;49.69;99359.28;5074607;28;20024;-62
2022/02/20 06:19:37;;;;;;;0.45;0.10;;;;;;;24.47;50.22;99362.03;5074349;28;20025;-62
2022/02/20 06:22:02;;;;;;;0.17;0.10;;;;;;;24.48;49.23;99354.63;5060768;28;20056;-62
2022/02/20 06:24:28;;;;;;;0.70;0.10;;;;;;;24.50;49.83;99360.69;5054207;28;20052;-62
2022/02/20 06:26:53;;;;;;;0.25;0.10;;;;;;;24.52;49.53;99366.78;5054180;28;20025;-62
2022/02/20 06:29:18;;;;;;;0.10;0.10;;;;;;;24.53;49.29;99360.22;5054368;28;20032;-62
2022/02/20 06:31:43;;;;;;;0.20;0.10;;;;;;;24.52;49.52;99383.25;5053271;28;20461;-62
2022/02/20 06:34:09;;;;;;;1.25;0.25;;;;;;;24.54;49.75;99361.91;5054167;28;20025;-62
2022/02/20 06:36:35;;;;;;;0.95;0.10;;;;;;;24.56;49.27;99376.22;5056567;28;20112;-62
2022/02/20 06:39:01;;;;;;;0.30;0.17;;;;;;;24.59;48.90;99368.31;5054043;28;20021;-61
2022/02/20 06:41:26;;;;;;;0.65;0.10;;;;;;;24.59;49.14;99372.97;5052871;28;20051;-62
2022/02/20 06:43:51;;;;;;;0.30;0.08;;;;;;;24.62;49.51;99374.38;5052443;28;20376;-62
2022/02/20 06:46:16;;;;;;;1.45;0.30;;;;;;;24.62;49.08;99375.22;5054051;28;20059;-62
2022/02/20 06:48:42;;;;;;;0.40;0.10;;;;;;;24.64;49.96;99381.28;5053829;28;20016;-62
2022/02/20 06:51:07;;;;;;;0.50;0.25;;;;;;;24.63;49.65;99379.63;5053885;28;20721;-61
2022/02/20 06:53:32;;;;;;;0.50;0.10;;;;;;;24.64;49.46;99381.28;5053615;28;20037;-62
2022/02/20 06:55:58;;;;;;;0.40;0.10;;;;;;;24.65;49.59;99393.94;5053633;28;20472;-61
2022/02/20 06:58:23;;;;;;;0.20;0.10;;;;;;;24.67;49.94;99399.19;5053850;28;20033;-62
2022/02/20 07:00:49;;;;;;;0.10;0.00;;;;;;;24.67;49.57;99399.19;5053493;28;20024;-62
2022/02/20 07:03:14;;;;;;;0.30;0.10;;;;;;;24.70;48.97;99401.47;5053761;28;20040;-62
2022/02/20 07:05:41;;;;;;;0.30;0.17;;;;;;;24.68;49.18;99393.44;5059580;28;20027;-61
2022/02/20 07:08:06;;;;;;;0.75;0.20;;;;;;;24.70;49.68;99380.31;5073499;28;20413;-62
2022/02/20 07:10:31;;;;;;;0.63;0.20;;;;;;;24.72;49.66;99391.06;5073586;28;20032;-61
2022/02/20 07:12:56;;;;;;;0.20;0.00;;;;;;;24.73;49.69;99390.81;5073133;28;20047;-61
2022/02/20 07:15:24;;;;;;;0.47;0.05;;;;;;;24.72;49.40;99394.63;5073781;28;20020;-62
2022/02/20 07:17:50;;;;;;;0.75;0.10;;;;;;;24.73;49.30;99404.53;5072138;28;20395;-62
2022/02/20 07:20:15;;;;;;;0.65;0.10;;;;;;;24.75;49.73;99410.63;5073380;28;20066;-62
2022/02/20 07:22:40;;;;;;;2.67;0.25;;;;;;;24.75;49.00;99410.63;5073225;28;20406;-62
2022/02/20 07:25:06;;;;;;;0.25;0.20;;;;;;;24.75;49.04;99407.03;5073081;28;20025;-61
2022/02/20 07:27:43;;;;;;;0.75;0.25;;;;;;;24.76;49.24;99406.78;5073250;28;20027;-62
2022/02/20 07:30:12;;;;;;;0.32;0.03;;;;;;;24.78;49.74;99403.78;5073026;28;20391;-62
2022/02/20 07:32:37;;;;;;;1.08;0.30;;;;;;;24.78;49.53;99414.78;5072995;28;20024;-62
2022/02/20 07:35:03;;;;;;;0.00;0.00;;;;;;;24.78;48.75;99410.13;5069017;28;20418;-62
2022/02/20 07:37:29;;;;;;;1.15;0.28;;;;;;;24.82;49.58;99416.78;5052931;28;20029;-62
2022/02/20 07:39:56;;;;;;;0.10;0.10;;;;;;;24.81;49.60;99411.53;5052704;28;20037;-61
2022/02/20 07:42:22;;;;;;;0.93;0.38;;;;;;;24.81;49.45;99398.63;5052997;28;20096;-62
2022/02/20 07:44:47;;;;;;;0.20;0.10;;;;;;;24.81;48.38;99408.78;5052709;28;20111;-61
2022/02/20 07:47:13;;;;;;;1.30;0.20;;;;;;;24.84;48.57;99409.13;5052880;28;20067;-62
2022/02/20 07:49:38;;;;;;;0.10;0.10;;;;;;;24.82;48.71;99419.53;5052694;28;20037;-63
2022/02/20 07:52:03;;;;;;;0.50;0.10;;;;;;;24.85;48.47;99410.78;5052657;28;20028;-61
2022/02/20 07:54:28;;;;;;;0.20;0.10;;;;;;;24.83;48.33;99412.94;5052672;28;20434;-61
2022/02/20 07:56:54;;;;;;;0.32;0.10;;;;;;;24.83;48.59;99412.94;5052779;28;20036;-61
2022/02/20 07:59:20;;;;;;;0.43;0.10;;;;;;;24.83;49.10;99412.94;5052798;28;20418;-61
2022/02/20 08:01:45;;;;;;;0.22;0.15;;;;;;;24.85;48.62;99415.44;5052390;28;20066;-62
2022/02/20 08:04:11;;;;;;;0.22;0.10;;;;;;;24.86;48.54;99414.41;5052577;28;20472;-62
2022/02/20 08:06:37;;;;;;;1.35;0.20;;;;;;;24.80;48.59;99421.69;5052958;28;20485;-61
2022/02/20 08:09:04;;;;;;;0.40;0.10;;;;;;;24.84;48.68;99425.59;5052679;28;20392;-62
2022/02/20 08:11:31;;;;;;;0.57;0.35;;;;;;;24.83;48.38;99426.69;5052567;28;20029;-62
2022/02/20 08:13:57;;;;;;;0.17;0.10;;;;;;;24.86;48.32;99428.97;5052196;28;20100;-62
2022/02/20 08:16:22;;;;;;;0.93;0.22;;;;;;;24.87;47.98;99425.13;5052542;28;20021;-62
2022/02/20 08:18:47;;;;;;;0.70;0.10;;;;;;;24.88;48.39;99414.97;5052207;28;20086;-61
2022/02/20 08:21:13;;;;;;;0.40;0.25;;;;;;;24.86;48.16;99412.47;5052449;28;20021;-62
2022/02/20 08:23:38;;;;;;;1.10;0.10;;;;;;;24.93;47.94;99419.72;5052191;28;20025;-62
2022/02/20 08:26:03;;;;;;;0.70;0.20;;;;;;;24.87;48.01;99414.16;5052262;28;20020;-62
2022/02/20 08:28:29;;;;;;;0.10;0.00;;;;;;;24.87;48.07;99416.06;5052433;28;20025;-62
2022/02/20 08:30:54;;;;;;;0.20;0.13;;;;;;;24.89;48.46;99416.63;5052103;28;20029;-61
2022/02/20 08:33:19;;;;;;;0.20;0.20;;;;;;;24.90;48.14;99416.38;5052264;28;20018;-62
2022/02/20 08:35:44;;;;;;;0.13;0.10;;;;;;;24.87;47.99;99418.81;5052516;28;20411;-62
2022/02/20 08:38:10;;;;;;;0.40;0.20;;;;;;;24.87;48.53;99424.31;5052193;28;20115;-62
2022/02/20 08:40:37;;;;;;;1.45;0.17;;;;;;;24.84;47.98;99431.09;5052176;28;20131;-61
2022/02/20 08:43:03;;;;;;;0.57;0.10;;;;;;;24.88;48.19;99428.72;5052366;28;20025;-62
2022/02/20 08:45:28;;;;;;;0.25;0.10;;;;;;;24.92;48.08;99434.53;5052529;28;20464;-61
2022/02/20 08:47:53;;;;;;;0.55;0.20;;;;;;;24.93;48.09;99441.72;5051916;28;20133;-61
2022/02/20 08:50:18;;;;;;;0.43;0.28;;;;;;;24.89;48.25;99442.22;5052146;28;20428;-62
2022/02/20 08:52:45;;;;;;;0.28;0.25;;;;;;;24.89;47.96;99433.97;5051803;28;20036;-61
2022/02/20 08:55:11;;;;;;;0.05;0.03;;;;;;;24.92;48.28;99431.81;5053069;28;20025;-62
2022/02/20 08:57:36;;;;;;;0.63;0.20;;;;;;;24.94;48.54;99429.63;5054484;28;20124;-61
2022/02/20 09:00:06;;;;;;;0.57;0.10;;;;;;;24.93;47.80;99417.81;5055945;28;20467;-61
2022/02/20 09:02:32;;;;;;;0.22;0.10;;;;;;;24.93;47.49;99426.06;5056078;28;20049;-61
2022/02/20 09:04:57;;;;;;;0.75;0.20;;;;;;;24.96;48.14;99431.03;5060301;28;20086;-61
2022/02/20 09:07:22;;;;;;;0.68;0.10;;;;;;;24.95;48.15;99425.78;5075888;28;20044;-61
2022/02/20 09:09:48;;;;;;;1.15;0.20;;;;;;;24.88;47.81;99421.31;5075595;28;20028;-61
2022/02/20 09:12:13;;;;;;;0.70;0.10;;;;;;;24.94;48.38;99426.88;5075720;28;20028;-62
2022/02/20 09:14:38;;;;;;;0.85;0.10;;;;;;;24.94;47.61;99429.63;5075668;28;20103;-61
2022/02/20 09:17:04;;;;;;;0.32;0.17;;;;;;;24.94;47.84;99440.63;5075629;28;20028;-62
2022/02/20 09:19:29;;;;;;;0.32;0.32;;;;;;;24.94;47.66;99440.63;5075651;28;20029;-61
2022/02/20 09:21:55;;;;;;;0.20;0.05;;;;;;;24.96;47.40;99444.78;5075292;28;20036;-61
2022/02/20 09:24:21;;;;;;;0.70;0.08;;;;;;;24.95;48.10;99445.03;5075639;28;20107;-61
2022/02/20 09:26:46;;;;;;;0.68;0.20;;;;;;;24.96;48.17;99449.44;5075320;28;20020;-62
2022/02/20 09:29:12;;;;;;;0.80;0.20;;;;;;;25.00;47.75;99442.41;5075476;28;20078;-61
2022/02/20 09:31:37;;;;;;;1.08;0.10;;;;;;;25.00;47.95;99456.16;5070544;28;20029;-61
2022/02/20 09:34:03;;;;;;;1.15;0.20;;;;;;;24.96;47.77;99454.94;5055242;28;20028;-61
2022/02/20 09:36:28;;;;;;;0.95;0.10;;;;;;;24.98;47.90;99441.78;5074775;28;20028;-61
2022/02/20 09:38:57;;;;;;;0.68;0.10;;;;;;;24.96;47.81;99443.94;5075052;28;20016;-62
2022/02/20 09:41:27;;;;;;;0.38;0.15;;;;;;;24.98;47.66;99444.53;5075350;28;20023;-61
2022/02/20 09:43:57;;;;;;;0.03;0.03;;;;;;;25.01;48.17;99449.56;5074872;28;20048;-62
2022/02/20 09:46:24;;;;;;;0.52;0.20;;;;;;;25.01;48.04;99441.31;5075306;28;20024;-61
2022/02/20 09:48:51;;;;;;;0.10;0.00;;;;;;;24.97;47.89;99445.63;5074815;28;20020;-61
2022/02/20 09:51:17;;;;;;;0.10;0.10;;;;;;;24.97;47.18;99442.88;5075130;28;20023;-62
2022/02/20 09:53:42;;;;;;;0.10;0.10;;;;;;;25.00;47.35;99450.66;5074609;28;20500;-62
2022/02/20 09:56:08;;;;;;;0.65;0.00;;;;;;;24.99;47.28;99454.44;5064363;28;20606;-61
2022/02/20 09:58:33;;;;;;;1.45;0.20;;;;;;;24.99;47.36;99454.44;5074987;28;20112;-61
2022/02/20 10:01:06;;;;;;;0.50;0.20;;;;;;;24.96;47.52;99452.19;5075002;28;20035;-62
2022/02/20 10:03:34;;;;;;;7.13;0.65;;;;;;;24.98;47.82;99461.88;5074792;28;20349;-61
2022/02/20 10:06:01;;;;;;;1.90;0.20;;;;;;;25.00;47.42;99461.66;5074223;28;20047;-61
2022/02/20 10:08:46;;;;;;;0.45;0.17;;;;;;;24.96;47.56;99457.69;5072758;28;20031;-61
2022/02/20 10:11:23;;;;;;;0.73;0.10;;;;;;;24.94;48.10;99462.63;5074745;28;20293;-61
2022/02/20 10:14:17;;;;;;;0.65;0.10;;;;;;;25.01;47.83;99463.31;5074294;28;20021;-62
2022/02/20 10:16:43;;;;;;;0.10;0.10;;;;;;;25.02;47.10;99459.47;5012265;28;20034;-61
2022/02/20 10:19:11;;;;;;;1.85;0.20;;;;;;;24.99;47.81;99459.94;5012304;28;20049;-61
2022/02/20 10:21:36;;;;;;;0.28;0.20;;;;;;;24.94;47.63;99474.44;5004409;28;20121;-62
2022/02/20 10:24:10;;;;;;;0.68;0.25;;;;;;;25.00;48.05;99472.63;4992747;28;20097;-61
2022/02/20 10:26:47;;;;;;;1.48;0.20;;;;;;;24.98;47.19;99474.78;4992628;28;20070;-62
2022/02/20 10:29:16;;;;;;;0.30;0.10;;;;;;;25.05;47.52;99470.00;4976440;28;20031;-61
2022/02/20 10:31:47;;;;;;;0.30;0.30;;;;;;;25.01;47.72;99466.06;4992354;28;20030;-61
2022/02/20 10:34:20;;;;;;;0.55;0.22;;;;;;;24.99;47.15;99466.28;4992587;28;20045;-61
2022/02/20 10:36:58;;;;;;;0.60;0.20;;;;;;;25.03;47.57;99466.69;4992388;28;20386;-61
2022/02/20 10:39:31;;;;;;;1.80;0.20;;;;;;;25.04;47.62;99465.59;4992600;28;20057;-62
2022/02/20 10:42:14;;;;;;;1.55;0.45;;;;;;;25.02;47.82;99467.72;4992125;28;20034;-61
2022/02/20 10:44:55;;;;;;;0.00;0.00;;;;;;;24.97;47.37;99464.88;4992374;28;20062;-61
2022/02/20 10:47:23;;;;;;;0.80;0.10;;;;;;;24.98;47.68;99463.78;4992409;28;20062;-62
2022/02/20 10:49:48;;;;;;;1.25;0.10;;;;;;;25.06;47.35;99466.16;4992031;28;20035;-62
2022/02/20 10:52:28;;;;;;;0.17;0.05;;;;;;;25.04;47.48;99457.34;4992165;28;20073;-62
2022/02/20 10:55:04;;;;;;;0.00;0.00;;;;;;;25.04;47.28;99460.09;5053567;28;20060;-61
2022/02/20 10:57:37;;;;;;;0.73;0.20;;;;;;;25.08;47.39;99455.75;5052114;28;20071;-61
2022/02/20 11:00:13;;;;;;;0.28;0.00;;;;;;;25.06;46.96;99455.16;5053789;28;20399;-61
2022/02/20 11:02:39;;;;;;;0.45;0.10;;;;;;;25.03;47.94;99452.94;5053639;28;20029;-61
2022/02/20 11:05:06;;;;;;;1.15;0.25;;;;;;;25.03;47.45;99451.00;5053585;28;20098;-61
2022/02/20 11:07:34;;;;;;;0.30;0.10;;;;;;;25.07;47.42;99452.19;5053507;28;20483;-61
2022/02/20 11:09:59;;;;;;;0.40;0.13;;;;;;;25.06;47.38;99446.94;5053486;28;20056;-62
2022/02/20 11:12:25;;;;;;;0.17;0.10;;;;;;;25.07;47.07;99446.69;5053530;28;20067;-61
2022/02/20 11:14:52;;;;;;;0.00;0.00;;;;;;;25.04;47.76;99435.34;5053268;28;20108;-62
2022/02/20 11:17:21;;;;;;;0.68;0.40;;;;;;;24.99;47.29;99443.44;5053549;28;20029;-61
2022/02/20 11:19:47;;;;;;;0.43;0.25;;;;;;;25.07;47.12;99449.44;5052884;28;20536;-61
2022/02/20 11:22:12;;;;;;;1.23;0.10;;;;;;;25.06;47.95;99430.44;5053380;28;20504;-62
2022/02/20 11:24:41;;;;;;;0.30;0.20;;;;;;;25.01;46.74;99433.06;5053136;28;20021;-62
2022/02/20 11:27:13;;;;;;;0.55;0.20;;;;;;;25.05;47.76;99437.00;5071731;28;20021;-62
2022/02/20 11:29:39;;;;;;;1.13;0.30;;;;;;;25.04;47.86;99429.84;5073030;28;20028;-61